Forside
METAR-TAF:

METAR-TAF

Lufthavne :

Topcliffe, England

Breddekreds: 54-12N, længdekreds: 001-23W, højde: 28 m

Aktuelle vejr

Denne rapport blev lavet for 27 minutter siden, kl. 12:50 UTC
Vind 5 kt fra nord
Temperatur 9°C
Fugtighed 66%
Tryk 1034 hPa
Sigt 10 km eller mere

METAR: EGXZ 311250Z AUTO 35005KT 9999 BKN040/// 09/03 Q1034

Tid: 14:17 (13:17 UTC)


TAF: fraværende

Vejrobservationer og prognoser fra mere end 4000 lufthavne (METAR og TAF).

De gule og røde prikker repræsenterer de meteorologiske stationer.

Flyt musen over at se navnet på stationen.

Så klik over at se vejr observationer og prognoser.

At skifte det kort: Klik på de grønne knapper med et sort kors for at zoome ind; på den grønne knap med en bindestreg for at zoome ud; eller på de grønne pile for tilstødende kort.


METAR-TAF: